WZZ3LB LWSK-LIME
Flight info
| Callsign | WZZ3LB |
|---|---|
| Flight time | N/A |
| Altitude | 36000 |
| Route | GOSTI DCT MAVAR DCT GEBNI DCT SPL DCT BAXON DCT GIPUK DCT LUMAV/N0443F370 DCT BOA/N0441F360 DCT OGPUD DCT BETMU DCT OSBUL |
| Aircraft | A321/M-SDE1E2E3FGIJ1J4RWXY/LB1 |
Departure
| Time | 2026-04-26 16:47 |
|---|---|
| Airport | Skopje International Airport (LWSK) |
Arrival
| Time | N/A |
|---|---|
| Airport | Il Caravaggio International Airport (LIME) |
| Time | Latitude | Longitude | Altitude | Speed | Heading |
|---|---|---|---|---|---|
| 2026-04-26 16:26 | 41.95946 | 21.62638 | 793 ft | 0 kts | 76° |
| 2026-04-26 16:37 | 41.95943 | 21.62621 | 793 ft | 2 kts | 65° |
| 2026-04-26 16:37 | 41.95935 | 21.62601 | 793 ft | 2 kts | 64° |
| 2026-04-26 16:37 | 41.95929 | 21.62580 | 793 ft | 2 kts | 122° |
| 2026-04-26 16:38 | 41.95942 | 21.62567 | 793 ft | 2 kts | 160° |
| 2026-04-26 16:38 | 41.95947 | 21.62564 | 793 ft | 0 kts | 165° |
| 2026-04-26 16:40 | 41.95942 | 21.62563 | 793 ft | 2 kts | 181° |
| 2026-04-26 16:40 | 41.95928 | 21.62542 | 793 ft | 4 kts | 245° |
| 2026-04-26 16:41 | 41.95889 | 21.62512 | 791 ft | 10 kts | 175° |
| 2026-04-26 16:41 | 41.95803 | 21.62540 | 789 ft | 15 kts | 167° |
| 2026-04-26 16:41 | 41.95681 | 21.62581 | 786 ft | 20 kts | 166° |
| 2026-04-26 16:41 | 41.95541 | 21.62632 | 785 ft | 20 kts | 163° |
| 2026-04-26 16:42 | 41.95398 | 21.62685 | 783 ft | 22 kts | 165° |
| 2026-04-26 16:42 | 41.95253 | 21.62734 | 780 ft | 14 kts | 166° |
| 2026-04-26 16:42 | 41.95173 | 21.62752 | 778 ft | 11 kts | 189° |
| 2026-04-26 16:42 | 41.95142 | 21.62697 | 778 ft | 5 kts | 255° |
| 2026-04-26 16:43 | 41.95139 | 21.62686 | 778 ft | 0 kts | 255° |
| 2026-04-26 16:45 | 41.95139 | 21.62685 | 778 ft | 0 kts | 255° |
| 2026-04-26 16:45 | 41.95136 | 21.62670 | 778 ft | 4 kts | 255° |
| 2026-04-26 16:45 | 41.95126 | 21.62618 | 779 ft | 8 kts | 255° |
| 2026-04-26 16:45 | 41.95109 | 21.62541 | 780 ft | 9 kts | 251° |
| 2026-04-26 16:46 | 41.95114 | 21.62507 | 781 ft | 3 kts | 346° |
| 2026-04-26 16:46 | 41.95115 | 21.62507 | 781 ft | 0 kts | 347° |
| 2026-04-26 16:46 | 41.95315 | 21.62440 | 782 ft | 68 kts | 345° |
| 2026-04-26 16:46 | 41.95998 | 21.62202 | 788 ft | 132 kts | 345° |
| 2026-04-26 16:47 | 41.97008 | 21.61847 | 1114 ft | 152 kts | 347° |
| 2026-04-26 16:47 | 41.98025 | 21.61491 | 1800 ft | 152 kts | 347° |
| 2026-04-26 16:47 | 41.99061 | 21.61119 | 2413 ft | 157 kts | 340° |
| 2026-04-26 16:47 | 41.99887 | 21.60196 | 2937 ft | 163 kts | 300° |
| 2026-04-26 16:48 | 42.00062 | 21.58685 | 3444 ft | 172 kts | 259° |
| 2026-04-26 16:48 | 41.99555 | 21.57192 | 3979 ft | 179 kts | 244° |
| 2026-04-26 16:48 | 41.98953 | 21.55673 | 4350 ft | 193 kts | 243° |
| 2026-04-26 16:48 | 41.98293 | 21.54019 | 4722 ft | 206 kts | 243° |
| 2026-04-26 16:49 | 41.97593 | 21.52264 | 4988 ft | 222 kts | 243° |
| 2026-04-26 16:49 | 41.96844 | 21.50383 | 5202 ft | 242 kts | 243° |
| 2026-04-26 16:49 | 41.96011 | 21.48276 | 5421 ft | 267 kts | 243° |
| 2026-04-26 16:49 | 41.95128 | 21.46035 | 6102 ft | 275 kts | 244° |
| 2026-04-26 16:50 | 41.94344 | 21.43682 | 6877 ft | 278 kts | 249° |
| 2026-04-26 16:50 | 41.93614 | 21.41275 | 7665 ft | 279 kts | 250° |
| 2026-04-26 16:50 | 41.92901 | 21.38838 | 8464 ft | 281 kts | 250° |
| 2026-04-26 16:50 | 41.92188 | 21.36386 | 9260 ft | 284 kts | 250° |
| 2026-04-26 16:51 | 41.91460 | 21.33907 | 10053 ft | 287 kts | 250° |
| 2026-04-26 16:51 | 41.90955 | 21.32195 | 10312 ft | 299 kts | 250° |
| 2026-04-26 16:51 | 41.89879 | 21.28550 | 10580 ft | 328 kts | 250° |
| 2026-04-26 16:51 | 41.89026 | 21.25685 | 11067 ft | 338 kts | 249° |
| 2026-04-26 16:52 | 41.88142 | 21.22736 | 11696 ft | 343 kts | 249° |
| 2026-04-26 16:52 | 41.87550 | 21.20762 | 12166 ft | 346 kts | 249° |
| 2026-04-26 16:52 | 41.86343 | 21.16730 | 13059 ft | 351 kts | 250° |
| 2026-04-26 16:52 | 41.85431 | 21.13675 | 13709 ft | 355 kts | 250° |
| 2026-04-26 16:53 | 41.84507 | 21.10585 | 14311 ft | 359 kts | 250° |
| 2026-04-26 16:53 | 41.83569 | 21.07466 | 14927 ft | 362 kts | 249° |
| 2026-04-26 16:53 | 41.82621 | 21.04323 | 15544 ft | 365 kts | 249° |
| 2026-04-26 16:53 | 41.81660 | 21.01147 | 16182 ft | 369 kts | 250° |
| 2026-04-26 16:54 | 41.80692 | 20.97947 | 16820 ft | 372 kts | 249° |
| 2026-04-26 16:54 | 41.79715 | 20.94722 | 17449 ft | 375 kts | 250° |
| 2026-04-26 16:54 | 41.78728 | 20.91468 | 18054 ft | 379 kts | 250° |
| 2026-04-26 16:54 | 41.77736 | 20.88186 | 18623 ft | 382 kts | 250° |
| 2026-04-26 16:55 | 41.76735 | 20.84877 | 19171 ft | 385 kts | 250° |
| 2026-04-26 16:55 | 41.75726 | 20.81545 | 19705 ft | 388 kts | 250° |
| 2026-04-26 16:55 | 41.74704 | 20.78180 | 20251 ft | 391 kts | 250° |
| 2026-04-26 16:55 | 41.73723 | 20.74773 | 20790 ft | 393 kts | 253° |
| 2026-04-26 16:56 | 41.72552 | 20.67603 | 21847 ft | 396 kts | 266° |
| 2026-04-26 16:56 | 41.72432 | 20.63911 | 22343 ft | 398 kts | 272° |
| 2026-04-26 16:56 | 41.72613 | 20.60214 | 22849 ft | 400 kts | 279° |
| 2026-04-26 16:57 | 41.73108 | 20.56551 | 23332 ft | 401 kts | 285° |
| 2026-04-26 16:57 | 41.73925 | 20.52983 | 23776 ft | 402 kts | 292° |
| 2026-04-26 16:57 | 41.76485 | 20.46310 | 24547 ft | 406 kts | 303° |
| 2026-04-26 16:58 | 41.77971 | 20.43072 | 24944 ft | 408 kts | 303° |
| 2026-04-26 16:58 | 41.78960 | 20.40928 | 25209 ft | 410 kts | 303° |
| 2026-04-26 16:58 | 41.82494 | 20.33267 | 26127 ft | 417 kts | 303° |
| 2026-04-26 16:59 | 41.84023 | 20.29948 | 26524 ft | 419 kts | 303° |
| 2026-04-26 16:59 | 41.87106 | 20.23238 | 27260 ft | 425 kts | 303° |
| 2026-04-26 17:00 | 41.90200 | 20.16488 | 27981 ft | 430 kts | 303° |
| 2026-04-26 17:00 | 41.93373 | 20.09557 | 28701 ft | 436 kts | 303° |
| 2026-04-26 17:00 | 41.94944 | 20.06118 | 29039 ft | 439 kts | 303° |
| 2026-04-26 17:01 | 41.96539 | 20.02618 | 29392 ft | 441 kts | 303° |
| 2026-04-26 17:01 | 41.98144 | 19.99088 | 29703 ft | 444 kts | 303° |
| 2026-04-26 17:01 | 41.99758 | 19.95531 | 30031 ft | 447 kts | 303° |
| 2026-04-26 17:01 | 42.01380 | 19.91955 | 30321 ft | 449 kts | 303° |
| 2026-04-26 17:02 | 42.03009 | 19.88368 | 30622 ft | 451 kts | 303° |
| 2026-04-26 17:02 | 42.04648 | 19.84755 | 30938 ft | 453 kts | 303° |
| 2026-04-26 17:02 | 42.06291 | 19.81132 | 31234 ft | 454 kts | 303° |
| 2026-04-26 17:02 | 42.07929 | 19.77512 | 31660 ft | 452 kts | 303° |
| 2026-04-26 17:03 | 42.09559 | 19.73900 | 32107 ft | 451 kts | 303° |
| 2026-04-26 17:03 | 42.11183 | 19.70295 | 32529 ft | 449 kts | 303° |
| 2026-04-26 17:03 | 42.12801 | 19.66704 | 32958 ft | 447 kts | 303° |
| 2026-04-26 17:03 | 42.14409 | 19.63133 | 33383 ft | 446 kts | 303° |
| 2026-04-26 17:04 | 42.16010 | 19.59570 | 33814 ft | 444 kts | 303° |
| 2026-04-26 17:04 | 42.17607 | 19.56013 | 34192 ft | 443 kts | 303° |
| 2026-04-26 17:04 | 42.19200 | 19.52458 | 34527 ft | 442 kts | 302° |
| 2026-04-26 17:04 | 42.20788 | 19.48903 | 34838 ft | 442 kts | 302° |
| 2026-04-26 17:05 | 42.22369 | 19.45361 | 35172 ft | 441 kts | 302° |
| 2026-04-26 17:05 | 42.23952 | 19.41821 | 35498 ft | 440 kts | 302° |
| 2026-04-26 17:05 | 42.25531 | 19.38294 | 35831 ft | 439 kts | 302° |
| 2026-04-26 17:05 | 42.27116 | 19.34748 | 36017 ft | 439 kts | 302° |
| 2026-04-26 17:06 | 42.30244 | 19.27722 | 36062 ft | 435 kts | 302° |
| 2026-04-26 17:06 | 42.33352 | 19.20712 | 36047 ft | 434 kts | 302° |
| 2026-04-26 17:07 | 42.36440 | 19.13725 | 36064 ft | 434 kts | 302° |
| 2026-04-26 17:07 | 42.39536 | 19.06724 | 36055 ft | 433 kts | 302° |
| 2026-04-26 17:08 | 42.42632 | 18.99716 | 36062 ft | 434 kts | 302° |
| 2026-04-26 17:08 | 42.45716 | 18.92695 | 36091 ft | 434 kts | 302° |
| 2026-04-26 17:09 | 42.48280 | 18.86861 | 36098 ft | 434 kts | 302° |
| 2026-04-26 17:09 | 42.51890 | 18.78616 | 36103 ft | 434 kts | 301° |
| 2026-04-26 17:10 | 42.54963 | 18.71576 | 36107 ft | 434 kts | 301° |
| 2026-04-26 17:10 | 42.58015 | 18.64565 | 36108 ft | 434 kts | 301° |
| 2026-04-26 17:11 | 42.61075 | 18.57510 | 36109 ft | 434 kts | 301° |
| 2026-04-26 17:11 | 42.64136 | 18.50463 | 36108 ft | 433 kts | 301° |
| 2026-04-26 17:12 | 42.68223 | 18.41012 | 36107 ft | 433 kts | 301° |
| 2026-04-26 17:13 | 42.73269 | 18.29277 | 36106 ft | 432 kts | 301° |
| 2026-04-26 17:14 | 42.77820 | 18.18687 | 36104 ft | 432 kts | 301° |
| 2026-04-26 17:14 | 42.82278 | 18.08047 | 36102 ft | 431 kts | 298° |
| 2026-04-26 17:15 | 42.85997 | 17.98414 | 36100 ft | 431 kts | 297° |
| 2026-04-26 17:16 | 42.88773 | 17.91184 | 36100 ft | 431 kts | 298° |
| 2026-04-26 17:16 | 42.91575 | 17.83953 | 36101 ft | 430 kts | 298° |
| 2026-04-26 17:17 | 42.94376 | 17.76762 | 36095 ft | 430 kts | 298° |
| 2026-04-26 17:17 | 42.97186 | 17.69544 | 36094 ft | 430 kts | 298° |
| 2026-04-26 17:18 | 42.99982 | 17.62310 | 36094 ft | 430 kts | 297° |
| 2026-04-26 17:18 | 43.02765 | 17.55093 | 36096 ft | 430 kts | 297° |
| 2026-04-26 17:19 | 43.06928 | 17.44233 | 36096 ft | 429 kts | 297° |
| 2026-04-26 17:19 | 43.09692 | 17.36996 | 36097 ft | 429 kts | 297° |
| 2026-04-26 17:20 | 43.11993 | 17.30980 | 36097 ft | 429 kts | 297° |
| 2026-04-26 17:20 | 43.15215 | 17.22522 | 36099 ft | 428 kts | 297° |
| 2026-04-26 17:21 | 43.17935 | 17.15362 | 36077 ft | 427 kts | 297° |
| 2026-04-26 17:21 | 43.20689 | 17.08097 | 36088 ft | 427 kts | 297° |
| 2026-04-26 17:22 | 43.23423 | 17.00867 | 36088 ft | 427 kts | 297° |
| 2026-04-26 17:22 | 43.26131 | 16.93678 | 36093 ft | 427 kts | 297° |
| 2026-04-26 17:23 | 43.28865 | 16.86402 | 36092 ft | 426 kts | 297° |
| 2026-04-26 17:23 | 43.31561 | 16.79203 | 36092 ft | 426 kts | 296° |
| 2026-04-26 17:24 | 43.34266 | 16.71965 | 36090 ft | 426 kts | 296° |
| 2026-04-26 17:24 | 43.36972 | 16.64714 | 36093 ft | 426 kts | 296° |
| 2026-04-26 17:25 | 43.39678 | 16.57456 | 36091 ft | 426 kts | 296° |
| 2026-04-26 17:25 | 43.42379 | 16.50199 | 36093 ft | 426 kts | 296° |
| 2026-04-26 17:26 | 43.45072 | 16.42928 | 36096 ft | 426 kts | 296° |
| 2026-04-26 17:26 | 43.47755 | 16.35642 | 36098 ft | 426 kts | 296° |
| 2026-04-26 17:27 | 43.50422 | 16.28353 | 36099 ft | 426 kts | 295° |
| 2026-04-26 17:27 | 43.52965 | 16.20959 | 36100 ft | 426 kts | 294° |
| 2026-04-26 17:28 | 43.55439 | 16.13542 | 36102 ft | 426 kts | 294° |
| 2026-04-26 17:28 | 43.57922 | 16.06123 | 36103 ft | 426 kts | 294° |
| 2026-04-26 17:29 | 43.59999 | 15.99969 | 36103 ft | 425 kts | 294° |
| 2026-04-26 17:29 | 43.62905 | 15.91375 | 36102 ft | 425 kts | 294° |
| 2026-04-26 17:30 | 43.65391 | 15.83963 | 36103 ft | 425 kts | 294° |
| 2026-04-26 17:30 | 43.67893 | 15.76499 | 36107 ft | 425 kts | 294° |
| 2026-04-26 17:31 | 43.70358 | 15.69141 | 36108 ft | 425 kts | 294° |
| 2026-04-26 17:31 | 43.72835 | 15.61702 | 36109 ft | 425 kts | 294° |
| 2026-04-26 17:32 | 43.75295 | 15.54275 | 36110 ft | 425 kts | 294° |
| 2026-04-26 17:32 | 43.77757 | 15.46844 | 36109 ft | 425 kts | 294° |
| 2026-04-26 17:33 | 43.80212 | 15.39409 | 36107 ft | 424 kts | 294° |
| 2026-04-26 17:34 | 43.83893 | 15.28251 | 36104 ft | 424 kts | 294° |
| 2026-04-26 17:34 | 43.86333 | 15.20813 | 36105 ft | 424 kts | 293° |
| 2026-04-26 17:35 | 43.88757 | 15.13365 | 36109 ft | 424 kts | 293° |
| 2026-04-26 17:35 | 43.91181 | 15.05917 | 36113 ft | 424 kts | 293° |
| 2026-04-26 17:36 | 43.93610 | 14.98476 | 36114 ft | 423 kts | 293° |
| 2026-04-26 17:36 | 43.96031 | 14.91029 | 36134 ft | 423 kts | 294° |
| 2026-04-26 17:37 | 43.98446 | 14.83576 | 36125 ft | 423 kts | 294° |
| 2026-04-26 17:37 | 44.00854 | 14.76119 | 36107 ft | 423 kts | 293° |
| 2026-04-26 17:38 | 44.04457 | 14.64899 | 36113 ft | 423 kts | 293° |
| 2026-04-26 17:38 | 44.06854 | 14.57416 | 36112 ft | 423 kts | 293° |
| 2026-04-26 17:39 | 44.09242 | 14.49941 | 36117 ft | 423 kts | 293° |
| 2026-04-26 17:39 | 44.11624 | 14.42462 | 36103 ft | 423 kts | 293° |
| 2026-04-26 17:40 | 44.13602 | 14.36238 | 36109 ft | 423 kts | 293° |
| 2026-04-26 17:40 | 44.16379 | 14.27475 | 36113 ft | 423 kts | 293° |
| 2026-04-26 17:41 | 44.18744 | 14.19974 | 36109 ft | 423 kts | 293° |
| 2026-04-26 17:41 | 44.21101 | 14.12469 | 36108 ft | 423 kts | 292° |
| 2026-04-26 17:42 | 44.23442 | 14.05005 | 36115 ft | 423 kts | 292° |
| 2026-04-26 17:42 | 44.25797 | 13.97497 | 36119 ft | 423 kts | 292° |
| 2026-04-26 17:43 | 44.28139 | 13.89982 | 36116 ft | 422 kts | 292° |
| 2026-04-26 17:43 | 44.30479 | 13.82461 | 36113 ft | 422 kts | 292° |
| 2026-04-26 17:44 | 44.32818 | 13.74932 | 36125 ft | 422 kts | 292° |
| 2026-04-26 17:44 | 44.35151 | 13.67394 | 36121 ft | 422 kts | 292° |
| 2026-04-26 17:45 | 44.37474 | 13.59857 | 36113 ft | 422 kts | 292° |
| 2026-04-26 17:45 | 44.39788 | 13.52324 | 36111 ft | 422 kts | 292° |
| 2026-04-26 17:46 | 44.41868 | 13.44654 | 36118 ft | 421 kts | 282° |
| 2026-04-26 17:46 | 44.43013 | 13.36632 | 36107 ft | 421 kts | 281° |
| 2026-04-26 17:47 | 44.43776 | 13.31252 | 36110 ft | 421 kts | 281° |
| 2026-04-26 17:47 | 44.45287 | 13.20566 | 36121 ft | 421 kts | 281° |
| 2026-04-26 17:48 | 44.46413 | 13.12536 | 36116 ft | 420 kts | 281° |
| 2026-04-26 17:48 | 44.47530 | 13.04504 | 36120 ft | 421 kts | 281° |
| 2026-04-26 17:49 | 44.48642 | 12.96458 | 36105 ft | 421 kts | 281° |
| 2026-04-26 17:49 | 44.49752 | 12.88408 | 36113 ft | 421 kts | 281° |
| 2026-04-26 17:50 | 44.50858 | 12.80364 | 36113 ft | 420 kts | 281° |
| 2026-04-26 17:50 | 44.51954 | 12.72315 | 36110 ft | 420 kts | 281° |
| 2026-04-26 17:51 | 44.53045 | 12.64276 | 36105 ft | 420 kts | 281° |
| 2026-04-26 17:51 | 44.54130 | 12.56215 | 36109 ft | 420 kts | 281° |
| 2026-04-26 17:52 | 44.55210 | 12.48158 | 36109 ft | 420 kts | 281° |
| 2026-04-26 17:52 | 44.56285 | 12.40106 | 36119 ft | 420 kts | 281° |
| 2026-04-26 17:53 | 44.57347 | 12.32047 | 36118 ft | 420 kts | 281° |
| 2026-04-26 17:54 | 44.58933 | 12.19972 | 36118 ft | 419 kts | 281° |
| 2026-04-26 17:54 | 44.59980 | 12.11950 | 36113 ft | 419 kts | 281° |
| 2026-04-26 17:55 | 44.61029 | 12.03897 | 36112 ft | 419 kts | 281° |
| 2026-04-26 17:55 | 44.62069 | 11.95860 | 36115 ft | 418 kts | 280° |